Pagrindinis puslapis
METAR-TAF:

METAR-TAF

Oro uostai :

Kiurasao, Nyderlandų Antilai

platuma: 12-12N, ilguma: 068-58W, Aukštis: 9 m

Dabartinis oras

Ataskaita buvo paskelbta 1 valandą ir 10 minutes, ne 05:00 UTC
Vėjas 10 kt iš Rytų/Pietryčių
Temperatūra 29°C
Drėgmė 84%
Slėgis 1012 hPa
Matomumas 10 km arba daugiau

METAR: TNCC 270500Z 12010KT 9999 NCD 29/26 Q1012 NOSIG

Laikas: 02:10 (06:10 UTC)

Prognozė

Ataskaita buvo paskelbta 55 minutes, ne 05:15 UTC
Prognozė galioja nuo 27 metu 06 UTC su 28 metu 06 UTC
Vėjas 7 kt iš Rytų/Pietryčių
Matomumas 10 km arba daugiau
Išsisklaidę debesys ne aukštis 1700 ft
Tikimybė 30% :
Laikinai
nuo 27 metu 06 UTC su 27 metu 15 UTC
Matomumas: 5000 m
Su prošvaistėmis ne aukštis 1500 ft
lietus,

TAF: TNCC 270515Z 2706/2806 11007KT 9999 SCT017 PROB30 TEMPO 2706/2715 5000 SHRA BKN015

Orai ataskaitas ir orų prognozės (METAR, TAF).

turimą stotys yra geltonos ir raudonos taškus žemėlapyje.

Perkelti pele per norėdami pamatyti stoties vardą.

Tada spustelėkite, norėdami matyti oro stebėjimo ir prognozės.

Norėdami pakeisti žemėlapį: spustelėkite ant žalios mygtukų su juodo kryžiaus žemyn,; žalią mygtuką su brūkšneliu, jei norite nutolinti; arba žalių rodyklių gretimoms žemėlapius.


METAR-TAF: